createdAt,value
2022-08-07T00:01:44.272Z,101230.41
2022-08-07T00:04:24.416Z,101229.78
2022-08-07T00:06:51.551Z,101218.47
2022-08-07T00:09:21.383Z,101219.84
2022-08-07T00:11:56.069Z,101227.25
2022-08-07T00:14:25.437Z,101232.31
2022-08-07T00:16:56.124Z,101231.28
2022-08-07T00:19:26.133Z,101223.56
2022-08-07T00:22:03.230Z,101220.06
2022-08-07T00:24:31.728Z,101212.44
2022-08-07T00:27:06.088Z,101217.94
2022-08-07T00:29:33.872Z,101220.69
2022-08-07T00:32:03.429Z,101210.97
2022-08-07T00:34:32.021Z,101218.47
2022-08-07T00:36:58.554Z,101226.28
2022-08-07T00:39:25.632Z,101224.78
2022-08-07T00:41:53.871Z,101221.72
2022-08-07T00:44:28.861Z,101220.88
2022-08-07T00:46:55.027Z,101224.69
2022-08-07T00:49:24.859Z,101217.78
2022-08-07T00:52:07.543Z,101215.25
2022-08-07T00:54:36.117Z,101211.75
2022-08-07T00:57:06.881Z,101208.81
2022-08-07T00:59:36.187Z,101216.53
2022-08-07T01:02:02.392Z,101213.25
2022-08-07T01:04:30.269Z,101211.69
2022-08-07T01:06:56.631Z,101214.72
2022-08-07T01:10:06.322Z,101214.22
2022-08-07T01:12:29.712Z,101213.25
2022-08-07T01:14:57.108Z,101210.19
2022-08-07T01:17:28.067Z,101210.38
2022-08-07T01:19:55.136Z,101221.72
2022-08-07T01:22:22.838Z,101223.97
2022-08-07T01:24:55.411Z,101217.03
2022-08-07T01:27:22.087Z,101215.03
2022-08-07T01:29:48.249Z,101206.00
2022-08-07T01:32:16.844Z,101214.41
2022-08-07T01:34:47.311Z,101215.34
2022-08-07T01:37:15.353Z,101214.81
2022-08-07T01:39:46.446Z,101214.72
2022-08-07T01:42:38.538Z,101216.06
2022-08-07T01:44:59.459Z,101226.88
2022-08-07T01:48:29.379Z,101218.53
2022-08-07T01:50:12.692Z,101216.06
2022-08-07T01:52:38.862Z,101224.72
2022-08-07T01:55:07.030Z,101218.78
2022-08-07T01:57:34.025Z,101218.88
2022-08-07T02:00:19.355Z,101217.97
2022-08-07T02:03:18.435Z,101220.59
2022-08-07T02:05:43.321Z,101223.31
2022-08-07T02:08:14.853Z,101219.13
2022-08-07T02:10:42.312Z,101208.84
2022-08-07T02:13:08.660Z,101202.41
2022-08-07T02:15:35.617Z,101205.22
2022-08-07T02:18:01.804Z,101208.94
2022-08-07T02:20:27.998Z,101201.34
2022-08-07T02:22:54.934Z,101203.28
2022-08-07T02:25:21.340Z,101199.72
2022-08-07T02:28:07.521Z,101201.50
2022-08-07T02:30:37.580Z,101198.13
2022-08-07T02:33:09.475Z,101199.06
2022-08-07T02:36:29.323Z,101194.66
2022-08-07T02:38:22.880Z,101190.53
2022-08-07T02:40:56.074Z,101194.97
2022-08-07T02:43:22.337Z,101184.53
2022-08-07T02:46:00.434Z,101183.88
2022-08-07T02:48:28.422Z,101180.44
2022-08-07T02:50:54.581Z,101177.16
2022-08-07T02:53:21.242Z,101171.09
2022-08-07T02:56:03.710Z,101167.63
2022-08-07T02:58:33.325Z,101172.66
2022-08-07T03:00:59.910Z,101177.75
2022-08-07T03:03:26.146Z,101171.41
2022-08-07T03:06:08.277Z,101175.53
2022-08-07T03:08:42.842Z,101171.19
2022-08-07T03:11:09.413Z,101170.81
2022-08-07T03:13:38.677Z,101177.06
2022-08-07T03:16:05.144Z,101173.09
2022-08-07T03:18:34.602Z,101167.16
2022-08-07T03:21:02.307Z,101178.38
2022-08-07T03:23:33.712Z,101171.31
2022-08-07T03:26:21.078Z,101172.50
2022-08-07T03:28:49.831Z,101173.91
2022-08-07T03:31:17.827Z,101176.38
2022-08-07T03:33:44.366Z,101179.25
2022-08-07T03:36:10.526Z,101181.22
2022-08-07T03:38:36.728Z,101185.09
2022-08-07T03:41:02.920Z,101187.78
2022-08-07T03:43:32.393Z,101182.88
2022-08-07T03:45:59.155Z,101190.94
2022-08-07T03:48:25.941Z,101186.44
2022-08-07T03:50:55.873Z,101196.13
2022-08-07T03:54:00.564Z,101196.78
2022-08-07T03:56:10.321Z,101197.38
2022-08-07T03:59:09.636Z,101185.31
2022-08-07T04:01:26.155Z,101186.97
2022-08-07T04:03:55.019Z,101197.94
2022-08-07T04:06:37.008Z,101205.47
2022-08-07T04:09:04.690Z,101211.19
2022-08-07T04:12:24.612Z,101207.19
2022-08-07T04:14:37.562Z,101200.06
2022-08-07T04:17:03.940Z,101202.94
2022-08-07T04:19:34.117Z,101203.50
2022-08-07T04:22:17.754Z,101208.06
2022-08-07T04:24:44.121Z,101214.09
2022-08-07T04:27:15.368Z,101214.25
2022-08-07T04:30:02.446Z,101212.88
2022-08-07T04:32:34.682Z,101221.38
2022-08-07T04:35:01.260Z,101215.03
2022-08-07T04:37:30.227Z,101212.59
2022-08-07T04:40:16.372Z,101219.06
2022-08-07T04:42:45.851Z,101224.06
2022-08-07T04:45:44.433Z,101227.56
2022-08-07T04:48:10.844Z,101228.81
2022-08-07T04:50:37.239Z,101232.47
2022-08-07T04:53:05.769Z,101231.94
2022-08-07T04:58:14.419Z,101227.28
2022-08-07T04:58:38.919Z,101228.88
2022-08-07T05:01:13.533Z,101233.47
2022-08-07T05:04:06.469Z,101241.13
2022-08-07T05:06:43.365Z,101235.59
2022-08-07T05:09:10.149Z,101244.69
2022-08-07T05:11:57.618Z,101241.78
2022-08-07T05:14:55.986Z,101249.19
2022-08-07T05:17:11.844Z,101241.72
2022-08-07T05:19:44.767Z,101250.56
2022-08-07T05:22:11.609Z,101242.47
2022-08-07T05:24:39.570Z,101248.25
2022-08-07T05:27:07.898Z,101261.31
2022-08-07T05:29:51.218Z,101257.16
2022-08-07T05:32:18.508Z,101262.13
2022-08-07T05:34:45.998Z,101265.34
2022-08-07T05:37:14.865Z,101253.72
2022-08-07T05:40:17.545Z,101252.53
2022-08-07T05:42:37.755Z,101260.06
2022-08-07T05:45:26.313Z,101253.88
2022-08-07T05:48:01.887Z,101262.88
2022-08-07T05:50:29.159Z,101261.69
2022-08-07T05:52:55.603Z,101264.81
2022-08-07T05:55:21.797Z,101267.34
2022-08-07T05:57:49.109Z,101260.69
2022-08-07T06:00:17.822Z,101263.44
2022-08-07T06:02:44.168Z,101260.59
2022-08-07T06:05:10.896Z,101269.88
2022-08-07T06:08:13.790Z,101263.97
2022-08-07T06:10:27.757Z,101270.31
2022-08-07T06:12:53.966Z,101263.44
2022-08-07T06:15:20.873Z,101270.50
2022-08-07T06:17:53.561Z,101259.41
2022-08-07T06:20:25.733Z,101264.63
2022-08-07T06:23:25.016Z,101252.78
2022-08-07T06:25:57.140Z,101258.97
2022-08-07T06:28:27.799Z,101259.56
2022-08-07T06:30:54.613Z,101262.81
2022-08-07T06:33:20.773Z,101256.00
2022-08-07T06:36:13.451Z,101254.94
2022-08-07T06:38:35.288Z,101253.66
2022-08-07T06:41:01.611Z,101250.72
2022-08-07T06:43:27.989Z,101254.34
2022-08-07T06:46:05.853Z,101258.69
2022-08-07T06:48:37.805Z,101252.59
2022-08-07T06:51:09.488Z,101249.53
2022-08-07T06:55:27.330Z,101250.19
2022-08-07T06:56:21.938Z,101250.03
2022-08-07T07:00:13.124Z,101249.00
2022-08-07T07:01:43.836Z,101245.53
2022-08-07T07:04:32.576Z,101251.84
2022-08-07T07:07:00.904Z,101249.25
2022-08-07T07:09:31.336Z,101248.91
2022-08-07T07:12:08.283Z,101248.84
2022-08-07T07:14:40.349Z,101250.66
2022-08-07T07:17:06.771Z,101253.28
2022-08-07T07:19:57.428Z,101249.34
2022-08-07T07:22:36.533Z,101248.84
2022-08-07T07:25:26.205Z,101243.50
2022-08-07T07:28:02.473Z,101242.72
2022-08-07T07:30:38.745Z,101245.31
2022-08-07T07:33:06.374Z,101245.16
2022-08-07T07:35:34.046Z,101238.38
2022-08-07T07:38:21.347Z,101237.59
2022-08-07T07:40:47.688Z,101232.28
2022-08-07T07:43:18.612Z,101240.44
2022-08-07T07:48:35.818Z,101236.78
2022-08-07T07:51:02.596Z,101236.28
2022-08-07T07:53:35.853Z,101238.28
2022-08-07T07:56:02.019Z,101237.47
2022-08-07T07:58:30.252Z,101236.72
2022-08-07T08:00:56.513Z,101228.00
2022-08-07T08:04:06.496Z,101216.47
2022-08-07T08:06:11.540Z,101221.28
2022-08-07T08:08:41.840Z,101216.91
2022-08-07T08:11:09.232Z,101219.44
2022-08-07T08:13:53.261Z,101211.00
2022-08-07T08:16:25.057Z,101219.94
2022-08-07T08:18:51.607Z,101211.16
2022-08-07T08:21:17.805Z,101209.41
2022-08-07T08:23:43.963Z,101210.28
2022-08-07T08:26:12.342Z,101210.56
2022-08-07T08:28:39.200Z,101206.41
2022-08-07T08:31:14.736Z,101211.66
2022-08-07T08:33:46.971Z,101203.91
2022-08-07T08:36:15.928Z,101211.72
2022-08-07T08:38:42.120Z,101200.53
2022-08-07T08:41:10.769Z,101206.44
2022-08-07T08:43:42.865Z,101201.66
2022-08-07T08:46:22.194Z,101201.28
2022-08-07T08:48:51.602Z,101200.75
2022-08-07T08:51:26.337Z,101201.72
2022-08-07T08:54:03.918Z,101195.88
2022-08-07T08:56:30.078Z,101198.13
2022-08-07T08:58:56.323Z,101188.75
2022-08-07T09:01:22.546Z,101193.06
2022-08-07T09:03:55.675Z,101188.44
2022-08-07T09:06:22.954Z,101183.09
2022-08-07T09:08:52.997Z,101181.94
2022-08-07T09:11:24.967Z,101175.19
2022-08-07T09:14:05.348Z,101178.84
2022-08-07T09:16:31.530Z,101178.50
2022-08-07T09:18:58.399Z,101168.38
2022-08-07T09:21:34.070Z,101177.78
2022-08-07T09:24:30.860Z,101163.88
2022-08-07T09:26:57.446Z,101171.31
2022-08-07T09:30:05.421Z,101158.09
2022-08-07T09:32:17.322Z,101164.75
2022-08-07T09:34:53.633Z,101162.84
2022-08-07T09:37:47.949Z,101158.69
2022-08-07T09:40:11.740Z,101160.19
2022-08-07T09:42:44.044Z,101156.06
2022-08-07T09:47:24.967Z,101142.84
2022-08-07T09:48:03.699Z,101150.38
2022-08-07T09:50:32.470Z,101151.09
2022-08-07T09:52:58.655Z,101134.53
2022-08-07T09:55:29.786Z,101130.81
2022-08-07T09:58:13.187Z,101123.03
2022-08-07T10:00:39.351Z,101129.44
2022-08-07T10:03:08.357Z,101118.63
2022-08-07T10:05:59.637Z,101121.03
2022-08-07T10:08:28.229Z,101114.56
2022-08-07T10:11:16.499Z,101106.34
2022-08-07T10:14:00.181Z,101105.50
2022-08-07T10:16:27.875Z,101103.50
2022-08-07T10:18:54.096Z,101105.19
2022-08-07T10:22:12.231Z,101089.91
2022-08-07T10:24:08.413Z,101092.00
2022-08-07T10:26:34.998Z,101091.72
2022-08-07T10:29:01.137Z,101087.22
2022-08-07T10:31:28.186Z,101089.03
2022-08-07T10:34:14.213Z,101082.03
2022-08-07T10:36:45.576Z,101078.03
2022-08-07T10:39:14.031Z,101078.00
2022-08-07T10:41:46.968Z,101073.16
2022-08-07T10:44:19.295Z,101077.38
2022-08-07T10:46:54.736Z,101067.75
2022-08-07T10:49:45.235Z,101060.25
2022-08-07T10:52:13.321Z,101062.44
2022-08-07T10:54:40.035Z,101060.75
2022-08-07T10:57:06.218Z,101063.56
2022-08-07T10:59:37.093Z,101057.88
2022-08-07T11:02:12.034Z,101052.53
2022-08-07T11:04:38.844Z,101054.88
2022-08-07T11:07:05.373Z,101062.59
2022-08-07T11:10:10.033Z,101056.72
2022-08-07T11:12:37.205Z,101046.09
2022-08-07T11:15:03.383Z,101042.22
2022-08-07T11:17:43.217Z,101044.06
2022-08-07T11:20:11.809Z,101043.72
2022-08-07T11:22:45.908Z,101047.13
2022-08-07T11:25:12.507Z,101028.31
2022-08-07T11:28:02.476Z,101033.09
2022-08-07T11:30:39.124Z,101032.53
2022-08-07T11:33:14.163Z,101027.78
2022-08-07T11:36:00.382Z,101026.84
2022-08-07T11:38:28.371Z,101019.75
2022-08-07T11:40:54.672Z,101017.34
2022-08-07T11:43:29.789Z,101011.88
2022-08-07T11:46:08.490Z,101002.28
2022-08-07T11:48:35.498Z,101006.88
2022-08-07T11:51:03.696Z,101001.28
2022-08-07T11:53:29.956Z,100998.22
2022-08-07T11:56:09.527Z,101000.25
2022-08-07T11:58:49.849Z,100997.88
2022-08-07T12:01:20.412Z,100992.88
2022-08-07T12:03:48.402Z,100996.94
2022-08-07T12:06:36.256Z,100995.22
2022-08-07T12:09:00.983Z,100989.25
2022-08-07T12:11:32.251Z,100986.38
2022-08-07T12:13:58.830Z,100986.28
2022-08-07T12:16:28.840Z,101003.84
2022-08-07T12:18:56.951Z,100990.81
2022-08-07T12:22:35.814Z,100986.13
2022-08-07T12:24:36.874Z,100987.41
2022-08-07T12:26:55.466Z,100976.06
2022-08-07T12:29:38.071Z,100974.19
2022-08-07T12:32:06.320Z,100979.41
2022-08-07T12:34:33.967Z,100977.75
2022-08-07T12:37:00.268Z,100979.50
2022-08-07T12:39:42.917Z,100974.16
2022-08-07T12:42:13.166Z,100962.66
2022-08-07T12:44:39.575Z,100962.03
2022-08-07T12:47:09.219Z,100959.34
2022-08-07T12:49:44.790Z,100964.34
2022-08-07T12:52:27.859Z,100947.34
2022-08-07T12:54:54.622Z,100953.09
2022-08-07T12:57:22.235Z,100949.53
2022-08-07T12:59:55.220Z,100954.47
2022-08-07T13:02:21.869Z,100953.91
2022-08-07T13:05:01.241Z,100944.69
2022-08-07T13:08:14.184Z,100946.69
2022-08-07T13:10:37.161Z,100951.16
2022-08-07T13:13:00.656Z,100939.03
2022-08-07T13:15:31.585Z,100931.38
2022-08-07T13:17:59.527Z,100926.03
2022-08-07T13:20:27.759Z,100928.84
2022-08-07T13:22:55.317Z,100935.03
2022-08-07T13:25:29.008Z,100929.91
2022-08-07T13:28:13.051Z,100931.63
2022-08-07T13:30:44.146Z,100931.66
2022-08-07T13:34:34.616Z,100917.72
2022-08-07T13:36:07.654Z,100926.50
2022-08-07T13:38:33.829Z,100917.63
2022-08-07T13:41:00.016Z,100917.44
2022-08-07T13:43:26.231Z,100914.31
2022-08-07T13:46:11.533Z,100913.69
2022-08-07T13:48:39.955Z,100909.84
2022-08-07T13:51:26.926Z,100903.28
2022-08-07T13:54:00.569Z,100908.28
2022-08-07T13:56:35.912Z,100909.31
2022-08-07T13:59:12.234Z,100895.56
2022-08-07T14:01:51.363Z,100904.56
2022-08-07T14:04:24.802Z,100886.56
2022-08-07T14:07:01.500Z,100886.84
2022-08-07T14:10:02.858Z,100886.28
2022-08-07T14:12:13.826Z,100878.91
2022-08-07T14:14:39.995Z,100876.69
2022-08-07T14:17:32.307Z,100876.63
2022-08-07T14:20:40.040Z,100878.59
2022-08-07T14:22:39.213Z,100876.00
2022-08-07T14:25:07.073Z,100869.31
2022-08-07T14:28:10.895Z,100873.31
2022-08-07T14:30:32.808Z,100865.31
2022-08-07T14:32:59.481Z,100865.03
2022-08-07T14:35:43.207Z,100873.19
2022-08-07T14:38:26.762Z,100861.91
2022-08-07T14:40:57.362Z,100860.94
2022-08-07T14:43:55.486Z,100857.69
2022-08-07T14:46:10.400Z,100851.69
2022-08-07T14:48:36.542Z,100848.16
2022-08-07T14:51:02.696Z,100844.91
2022-08-07T14:54:03.802Z,100839.81
2022-08-07T14:59:03.109Z,100840.56
2022-08-07T15:01:42.543Z,100837.31
2022-08-07T15:04:17.408Z,100835.50
2022-08-07T15:06:47.932Z,100832.69
2022-08-07T15:12:01.653Z,100833.38
2022-08-07T15:14:30.643Z,100831.81
2022-08-07T15:22:33.604Z,100834.38
2022-08-07T15:25:17.977Z,100815.97
2022-08-07T15:30:31.945Z,100816.84
2022-08-07T15:33:03.899Z,100818.56
2022-08-07T15:36:00.721Z,100820.81
2022-08-07T15:43:55.796Z,100812.31
2022-08-07T15:54:23.880Z,100802.75
2022-08-07T15:56:52.549Z,100802.72
2022-08-07T15:59:18.703Z,100801.09
2022-08-07T16:01:45.062Z,100798.22
2022-08-07T16:04:28.250Z,100794.66
2022-08-07T16:06:59.184Z,100799.19
2022-08-07T16:09:41.132Z,100791.81
2022-08-07T16:12:12.168Z,100787.91
2022-08-07T16:14:38.604Z,100785.84
2022-08-07T16:17:15.037Z,100781.94
2022-08-07T16:19:59.222Z,100783.03
2022-08-07T16:22:33.399Z,100790.19
2022-08-07T16:25:02.354Z,100780.38
2022-08-07T16:27:39.795Z,100785.69
2022-08-07T16:30:29.472Z,100782.13
2022-08-07T16:32:54.374Z,100789.44
2022-08-07T16:35:50.724Z,100786.84
2022-08-07T16:38:09.780Z,100781.53
2022-08-07T16:40:37.792Z,100791.56
2022-08-07T16:43:23.642Z,100781.16
2022-08-07T16:47:04.952Z,100789.41
2022-08-07T16:50:28.789Z,100794.09
2022-08-07T16:52:01.989Z,100777.38
2022-08-07T16:54:32.963Z,100789.44
2022-08-07T16:56:59.678Z,100792.31
2022-08-07T16:59:25.826Z,100789.22
2022-08-07T17:02:11.991Z,100786.28
2022-08-07T17:04:50.957Z,100787.66
2022-08-07T17:07:28.420Z,100792.41
2022-08-07T17:10:32.804Z,100794.06
2022-08-07T17:12:56.233Z,100794.09
2022-08-07T17:15:43.933Z,100794.63
2022-08-07T17:18:14.185Z,100794.81
2022-08-07T17:20:40.514Z,100798.03
2022-08-07T17:23:08.570Z,100798.38
2022-08-07T17:25:51.480Z,100797.72
2022-08-07T17:28:19.764Z,100799.53
2022-08-07T17:30:57.592Z,100802.75
2022-08-07T17:34:09.887Z,100801.94
2022-08-07T17:36:13.553Z,100799.91
2022-08-07T17:38:46.840Z,100802.56
2022-08-07T17:42:02.086Z,100800.44
2022-08-07T17:44:06.510Z,100802.28
2022-08-07T17:46:38.122Z,100806.81
2022-08-07T17:49:08.883Z,100810.31
2022-08-07T17:51:49.302Z,100811.34
2022-08-07T17:54:39.718Z,100809.81
2022-08-07T17:57:18.737Z,100811.66
2022-08-07T17:59:45.533Z,100816.19
2022-08-07T18:02:16.642Z,100824.22
2022-08-07T18:04:49.468Z,100821.38
2022-08-07T18:07:22.593Z,100817.34
2022-08-07T18:10:07.221Z,100827.06
2022-08-07T18:12:36.475Z,100821.56
2022-08-07T18:15:17.966Z,100828.72
2022-08-07T18:18:45.835Z,100833.41
2022-08-07T18:21:07.326Z,100832.41
2022-08-07T18:23:43.647Z,100837.38
2022-08-07T18:26:14.934Z,100837.03
2022-08-07T18:28:57.877Z,100839.56
2022-08-07T18:31:27.812Z,100839.03
2022-08-07T18:34:00.183Z,100844.00
2022-08-07T18:40:08.818Z,100839.47
2022-08-07T18:45:39.729Z,100849.56
2022-08-07T18:47:44.480Z,100843.31
2022-08-07T18:50:39.052Z,100852.44
2022-08-07T18:53:02.916Z,100857.22
2022-08-07T18:55:40.746Z,100864.63
2022-08-07T18:58:26.105Z,100872.50
2022-08-07T19:00:59.397Z,100871.13
2022-08-07T19:03:35.448Z,100875.06
2022-08-07T19:06:05.032Z,100879.91
2022-08-07T19:08:31.318Z,100880.00
2022-08-07T19:10:58.102Z,100888.34
2022-08-07T19:13:24.288Z,100889.69
2022-08-07T19:16:04.728Z,100892.44
2022-08-07T19:18:36.605Z,100891.88
2022-08-07T19:21:43.834Z,100901.16
2022-08-07T19:24:05.055Z,100908.31
2022-08-07T19:26:55.607Z,100921.94
2022-08-07T19:30:57.947Z,100921.94
2022-08-07T19:32:28.780Z,100924.16
2022-08-07T19:34:51.376Z,100930.34
2022-08-07T19:40:08.341Z,100930.03
2022-08-07T19:42:40.066Z,100938.75
2022-08-07T19:45:09.595Z,100930.75
2022-08-07T19:47:36.564Z,100929.25
2022-08-07T19:50:44.294Z,100931.34
2022-08-07T19:52:58.975Z,100930.94
2022-08-07T19:55:25.494Z,100935.31
2022-08-07T19:58:14.205Z,100934.47
2022-08-07T20:00:42.964Z,100942.31
2022-08-07T20:03:34.677Z,100944.53
2022-08-07T20:06:02.539Z,100942.84
2022-08-07T20:08:29.140Z,100944.66
2022-08-07T20:10:56.393Z,100946.94
2022-08-07T20:13:32.216Z,100946.09
2022-08-07T20:15:58.519Z,100949.72
2022-08-07T20:18:32.189Z,100955.66
2022-08-07T20:20:59.469Z,100947.94
2022-08-07T20:23:41.695Z,100956.19
2022-08-07T20:26:10.492Z,100954.81
2022-08-07T20:28:37.321Z,100956.78
2022-08-07T20:31:05.200Z,100951.59
2022-08-07T20:33:37.733Z,100951.19
2022-08-07T20:36:04.614Z,100953.28
2022-08-07T20:38:32.057Z,100951.88
2022-08-07T20:40:59.375Z,100953.97
2022-08-07T20:43:30.189Z,100950.50
2022-08-07T20:46:27.590Z,100950.50
2022-08-07T20:49:54.305Z,100949.91
2022-08-07T20:51:30.983Z,100948.63
2022-08-07T20:54:08.675Z,100947.22
2022-08-07T20:56:38.275Z,100956.19
2022-08-07T20:59:06.523Z,100948.19
2022-08-07T21:01:55.057Z,100943.56
2022-08-07T21:04:23.622Z,100942.44
2022-08-07T21:06:53.555Z,100936.84
2022-08-07T21:09:24.285Z,100931.50
2022-08-07T21:11:51.777Z,100936.25
2022-08-07T21:14:33.134Z,100929.66
2022-08-07T21:18:00.602Z,100923.47
2022-08-07T21:19:51.574Z,100927.81
2022-08-07T21:22:28.685Z,100927.34
2022-08-07T21:24:55.023Z,100925.94
2022-08-07T21:27:22.096Z,100928.59
2022-08-07T21:29:53.181Z,100925.69
2022-08-07T21:32:46.920Z,100925.81
2022-08-07T21:35:09.375Z,100919.06
2022-08-07T21:37:58.400Z,100924.94
2022-08-07T21:40:23.997Z,100922.22
2022-08-07T21:42:50.456Z,100929.75
2022-08-07T21:46:04.872Z,100924.41
2022-08-07T21:48:05.392Z,100930.13
2022-08-07T21:50:31.756Z,100921.72
2022-08-07T21:52:58.251Z,100932.22
2022-08-07T21:55:27.800Z,100921.00
2022-08-07T21:57:56.302Z,100927.53
2022-08-07T22:00:25.222Z,100920.28
2022-08-07T22:02:51.933Z,100922.50
2022-08-07T22:05:44.556Z,100924.47
2022-08-07T22:08:04.870Z,100934.75
2022-08-07T22:10:33.660Z,100931.00
2022-08-07T22:13:01.543Z,100930.03
2022-08-07T22:16:44.357Z,100936.19
2022-08-07T22:18:13.890Z,100934.88
2022-08-07T22:20:40.562Z,100938.66
2022-08-07T22:23:06.718Z,100943.03
2022-08-07T22:25:36.260Z,100943.31
2022-08-07T22:28:30.192Z,100933.91
2022-08-07T22:30:53.015Z,100935.53
2022-08-07T22:33:37.051Z,100939.56
2022-08-07T22:36:05.670Z,100944.97
2022-08-07T22:38:31.997Z,100942.13
2022-08-07T22:40:59.894Z,100944.44
2022-08-07T22:43:31.566Z,100939.53
2022-08-07T22:46:21.436Z,100946.91
2022-08-07T22:48:55.503Z,100950.06
2022-08-07T22:51:27.544Z,100952.41
2022-08-07T22:54:08.171Z,100952.88
2022-08-07T22:56:35.394Z,100960.50
2022-08-07T22:59:02.096Z,100962.78
2022-08-07T23:01:49.563Z,100959.19
2022-08-07T23:04:16.936Z,100954.09
2022-08-07T23:06:43.146Z,100957.25
2022-08-07T23:10:05.914Z,100958.00
2022-08-07T23:12:03.743Z,100955.59
2022-08-07T23:14:30.554Z,100956.09
2022-08-07T23:16:58.359Z,100954.78
2022-08-07T23:19:47.922Z,100952.63
2022-08-07T23:22:10.768Z,100959.38
2022-08-07T23:24:38.778Z,100956.25
2022-08-07T23:27:11.721Z,100958.28
2022-08-07T23:29:43.877Z,100962.88
2022-08-07T23:34:23.957Z,100961.06
2022-08-07T23:35:10.247Z,100966.94
2022-08-07T23:37:36.443Z,100960.06
2022-08-07T23:40:22.604Z,100952.59
2022-08-07T23:42:49.163Z,100950.75
2022-08-07T23:45:33.143Z,100952.44
2022-08-07T23:48:05.805Z,100960.13
2022-08-07T23:50:31.952Z,100958.63
2022-08-07T23:53:06.404Z,100961.50
2022-08-07T23:55:53.045Z,100965.06
2022-08-07T23:58:21.855Z,100961.38
